sensor_id;sensor_type;location;lat;lon;timestamp;temperature;humidity
51557;DHT22;38766;53.194;5.532;2022-11-11T00:00:19;12.80;99.90
51557;DHT22;38766;53.194;5.532;2022-11-11T00:02:45;12.70;99.90
51557;DHT22;38766;53.194;5.532;2022-11-11T00:05:12;12.80;99.90
51557;DHT22;38766;53.194;5.532;2022-11-11T00:07:37;12.70;99.90
51557;DHT22;38766;53.194;5.532;2022-11-11T00:10:03;12.70;99.90
51557;DHT22;38766;53.194;5.532;2022-11-11T00:12:29;12.70;99.90
51557;DHT22;38766;53.194;5.532;2022-11-11T00:14:55;12.70;99.90
51557;DHT22;38766;53.194;5.532;2022-11-11T00:17:20;12.70;99.90
51557;DHT22;38766;53.194;5.532;2022-11-11T00:20:05;12.70;99.90
51557;DHT22;38766;53.194;5.532;2022-11-11T00:22:49;12.70;99.90
51557;DHT22;38766;53.194;5.532;2022-11-11T00:25:34;12.80;99.90
51557;DHT22;38766;53.194;5.532;2022-11-11T00:27:59;12.80;99.90
51557;DHT22;38766;53.194;5.532;2022-11-11T00:30:25;12.80;99.90
51557;DHT22;38766;53.194;5.532;2022-11-11T00:33:00;12.80;99.90
51557;DHT22;38766;53.194;5.532;2022-11-11T00:35:26;12.80;99.90
51557;DHT22;38766;53.194;5.532;2022-11-11T00:38:13;12.80;99.90
51557;DHT22;38766;53.194;5.532;2022-11-11T00:40:58;12.80;99.90
51557;DHT22;38766;53.194;5.532;2022-11-11T00:43:24;12.80;99.90
51557;DHT22;38766;53.194;5.532;2022-11-11T00:45:50;12.90;99.90
51557;DHT22;38766;53.194;5.532;2022-11-11T00:48:16;12.90;99.90
51557;DHT22;38766;53.194;5.532;2022-11-11T00:51:07;12.90;99.90
51557;DHT22;38766;53.194;5.532;2022-11-11T00:53:33;12.80;99.90
51557;DHT22;38766;53.194;5.532;2022-11-11T00:56:00;12.90;99.90
51557;DHT22;38766;53.194;5.532;2022-11-11T00:58:26;12.80;99.90
51557;DHT22;38766;53.194;5.532;2022-11-11T01:00:52;12.90;99.90
51557;DHT22;38766;53.194;5.532;2022-11-11T01:03:18;12.80;99.90
51557;DHT22;38766;53.194;5.532;2022-11-11T01:05:44;12.80;99.90
51557;DHT22;38766;53.194;5.532;2022-11-11T01:08:10;12.80;99.90
51557;DHT22;38766;53.194;5.532;2022-11-11T01:10:36;12.80;99.90
51557;DHT22;38766;53.194;5.532;2022-11-11T01:13:18;12.80;99.90
51557;DHT22;38766;53.194;5.532;2022-11-11T01:15:47;12.80;99.90
51557;DHT22;38766;53.194;5.532;2022-11-11T01:18:14;12.70;99.90
51557;DHT22;38766;53.194;5.532;2022-11-11T01:20:41;12.70;99.90
51557;DHT22;38766;53.194;5.532;2022-11-11T01:23:08;12.80;99.90
51557;DHT22;38766;53.194;5.532;2022-11-11T01:25:35;12.70;99.90
51557;DHT22;38766;53.194;5.532;2022-11-11T01:28:01;12.70;99.90
51557;DHT22;38766;53.194;5.532;2022-11-11T01:30:27;12.70;99.90
51557;DHT22;38766;53.194;5.532;2022-11-11T01:32:53;12.70;99.90
51557;DHT22;38766;53.194;5.532;2022-11-11T01:35:19;12.70;99.90
51557;DHT22;38766;53.194;5.532;2022-11-11T01:37:44;12.70;99.90
51557;DHT22;38766;53.194;5.532;2022-11-11T01:40:10;12.80;99.90
51557;DHT22;38766;53.194;5.532;2022-11-11T01:43:18;12.80;99.90
51557;DHT22;38766;53.194;5.532;2022-11-11T01:48:32;12.80;99.90
51557;DHT22;38766;53.194;5.532;2022-11-11T01:51:35;12.80;99.90
51557;DHT22;38766;53.194;5.532;2022-11-11T01:54:06;12.70;99.90
51557;DHT22;38766;53.194;5.532;2022-11-11T01:56:33;12.90;99.90
51557;DHT22;38766;53.194;5.532;2022-11-11T01:59:03;13.00;99.90
51557;DHT22;38766;53.194;5.532;2022-11-11T02:01:32;13.00;99.90
51557;DHT22;38766;53.194;5.532;2022-11-11T02:04:00;13.00;99.90
51557;DHT22;38766;53.194;5.532;2022-11-11T02:06:45;13.00;99.90
51557;DHT22;38766;53.194;5.532;2022-11-11T02:09:11;13.00;99.90
51557;DHT22;38766;53.194;5.532;2022-11-11T02:11:39;13.00;99.90
51557;DHT22;38766;53.194;5.532;2022-11-11T02:14:25;13.00;99.90
51557;DHT22;38766;53.194;5.532;2022-11-11T02:17:10;13.00;99.90
51557;DHT22;38766;53.194;5.532;2022-11-11T02:19:48;13.10;99.90
51557;DHT22;38766;53.194;5.532;2022-11-11T02:25:07;13.10;99.90
51557;DHT22;38766;53.194;5.532;2022-11-11T02:27:36;13.10;99.90
51557;DHT22;38766;53.194;5.532;2022-11-11T02:30:05;13.10;99.90
51557;DHT22;38766;53.194;5.532;2022-11-11T02:32:32;13.10;99.90
51557;DHT22;38766;53.194;5.532;2022-11-11T02:34:57;13.10;99.90
51557;DHT22;38766;53.194;5.532;2022-11-11T02:37:25;13.10;99.90
51557;DHT22;38766;53.194;5.532;2022-11-11T02:39:55;13.10;99.90
51557;DHT22;38766;53.194;5.532;2022-11-11T02:42:23;13.10;99.90
51557;DHT22;38766;53.194;5.532;2022-11-11T02:44:48;13.10;99.90
51557;DHT22;38766;53.194;5.532;2022-11-11T02:47:15;13.10;99.90
51557;DHT22;38766;53.194;5.532;2022-11-11T02:49:40;13.10;99.90
51557;DHT22;38766;53.194;5.532;2022-11-11T02:52:06;13.10;99.90
51557;DHT22;38766;53.194;5.532;2022-11-11T02:54:31;13.10;99.90
51557;DHT22;38766;53.194;5.532;2022-11-11T02:56:57;13.10;99.90
51557;DHT22;38766;53.194;5.532;2022-11-11T02:59:33;13.10;99.90
51557;DHT22;38766;53.194;5.532;2022-11-11T03:01:58;13.00;99.90
51557;DHT22;38766;53.194;5.532;2022-11-11T03:04:24;13.10;99.90
51557;DHT22;38766;53.194;5.532;2022-11-11T03:06:50;13.10;99.90
51557;DHT22;38766;53.194;5.532;2022-11-11T03:09:15;13.10;99.90
51557;DHT22;38766;53.194;5.532;2022-11-11T03:11:41;13.10;99.90
51557;DHT22;38766;53.194;5.532;2022-11-11T03:14:07;13.20;99.90
51557;DHT22;38766;53.194;5.532;2022-11-11T03:16:33;13.10;99.90
51557;DHT22;38766;53.194;5.532;2022-11-11T03:19:18;13.10;99.90
51557;DHT22;38766;53.194;5.532;2022-11-11T03:21:44;13.10;99.90
51557;DHT22;38766;53.194;5.532;2022-11-11T03:24:10;13.10;99.90
51557;DHT22;38766;53.194;5.532;2022-11-11T03:26:36;13.20;99.90
51557;DHT22;38766;53.194;5.532;2022-11-11T03:29:03;13.10;99.90
51557;DHT22;38766;53.194;5.532;2022-11-11T03:31:28;13.20;99.90
51557;DHT22;38766;53.194;5.532;2022-11-11T03:33:54;13.10;99.90
51557;DHT22;38766;53.194;5.532;2022-11-11T03:36:20;13.10;99.90
51557;DHT22;38766;53.194;5.532;2022-11-11T03:39:05;13.10;99.90
51557;DHT22;38766;53.194;5.532;2022-11-11T03:41:31;13.10;99.90
51557;DHT22;38766;53.194;5.532;2022-11-11T03:43:56;13.10;99.90
51557;DHT22;38766;53.194;5.532;2022-11-11T03:46:22;13.00;99.90
51557;DHT22;38766;53.194;5.532;2022-11-11T03:48:47;12.90;99.90
51557;DHT22;38766;53.194;5.532;2022-11-11T03:51:13;12.90;99.90
51557;DHT22;38766;53.194;5.532;2022-11-11T03:53:39;12.80;99.90
51557;DHT22;38766;53.194;5.532;2022-11-11T03:56:04;12.80;99.90
51557;DHT22;38766;53.194;5.532;2022-11-11T03:58:30;12.70;99.90
51557;DHT22;38766;53.194;5.532;2022-11-11T04:00:57;12.60;99.90
51557;DHT22;38766;53.194;5.532;2022-11-11T04:03:22;12.60;99.90
51557;DHT22;38766;53.194;5.532;2022-11-11T04:06:08;12.50;99.90
51557;DHT22;38766;53.194;5.532;2022-11-11T04:08:52;12.40;99.90
51557;DHT22;38766;53.194;5.532;2022-11-11T04:11:40;12.40;99.90
51557;DHT22;38766;53.194;5.532;2022-11-11T04:14:11;12.40;99.90
51557;DHT22;38766;53.194;5.532;2022-11-11T04:16:56;12.30;99.90
51557;DHT22;38766;53.194;5.532;2022-11-11T04:19:22;12.20;99.90
51557;DHT22;38766;53.194;5.532;2022-11-11T04:22:06;12.20;99.90
51557;DHT22;38766;53.194;5.532;2022-11-11T04:24:32;12.20;99.90
51557;DHT22;38766;53.194;5.532;2022-11-11T04:27:17;12.10;99.90
51557;DHT22;38766;53.194;5.532;2022-11-11T04:29:44;12.10;99.90
51557;DHT22;38766;53.194;5.532;2022-11-11T04:32:13;12.10;99.90
51557;DHT22;38766;53.194;5.532;2022-11-11T04:35:03;12.10;99.90
51557;DHT22;38766;53.194;5.532;2022-11-11T04:37:34;12.10;99.90
51557;DHT22;38766;53.194;5.532;2022-11-11T04:40:00;12.00;99.90
51557;DHT22;38766;53.194;5.532;2022-11-11T04:42:44;12.10;99.90
51557;DHT22;38766;53.194;5.532;2022-11-11T04:45:10;12.00;99.90
51557;DHT22;38766;53.194;5.532;2022-11-11T04:48:08;12.00;99.90
51557;DHT22;38766;53.194;5.532;2022-11-11T04:50:36;12.00;99.90
51557;DHT22;38766;53.194;5.532;2022-11-11T04:53:05;12.00;99.90
51557;DHT22;38766;53.194;5.532;2022-11-11T04:55:31;12.00;99.90
51557;DHT22;38766;53.194;5.532;2022-11-11T04:58:19;11.90;99.90
51557;DHT22;38766;53.194;5.532;2022-11-11T05:00:44;11.90;99.90
51557;DHT22;38766;53.194;5.532;2022-11-11T05:03:11;11.90;99.90
51557;DHT22;38766;53.194;5.532;2022-11-11T05:05:43;11.90;99.90
51557;DHT22;38766;53.194;5.532;2022-11-11T05:08:28;11.90;99.90
51557;DHT22;38766;53.194;5.532;2022-11-11T05:11:13;11.80;99.90
51557;DHT22;38766;53.194;5.532;2022-11-11T05:13:38;11.80;99.90
51557;DHT22;38766;53.194;5.532;2022-11-11T05:16:25;11.80;99.90
51557;DHT22;38766;53.194;5.532;2022-11-11T05:19:12;11.70;99.90
51557;DHT22;38766;53.194;5.532;2022-11-11T05:21:56;11.70;99.90
51557;DHT22;38766;53.194;5.532;2022-11-11T05:24:26;11.70;99.90
51557;DHT22;38766;53.194;5.532;2022-11-11T05:27:10;11.70;99.90
51557;DHT22;38766;53.194;5.532;2022-11-11T05:29:36;11.70;99.90
51557;DHT22;38766;53.194;5.532;2022-11-11T05:32:02;11.70;99.90
51557;DHT22;38766;53.194;5.532;2022-11-11T05:34:28;11.70;99.90
51557;DHT22;38766;53.194;5.532;2022-11-11T05:36:54;11.70;99.90
51557;DHT22;38766;53.194;5.532;2022-11-11T05:39:19;11.70;99.90
51557;DHT22;38766;53.194;5.532;2022-11-11T05:41:45;11.70;99.90
51557;DHT22;38766;53.194;5.532;2022-11-11T05:44:10;11.70;99.90
51557;DHT22;38766;53.194;5.532;2022-11-11T05:46:36;11.70;99.90
51557;DHT22;38766;53.194;5.532;2022-11-11T05:49:02;11.70;99.90
51557;DHT22;38766;53.194;5.532;2022-11-11T05:51:39;11.70;99.90
51557;DHT22;38766;53.194;5.532;2022-11-11T05:54:05;11.70;99.90
51557;DHT22;38766;53.194;5.532;2022-11-11T05:56:31;11.70;99.90
51557;DHT22;38766;53.194;5.532;2022-11-11T05:58:56;11.70;99.90
51557;DHT22;38766;53.194;5.532;2022-11-11T06:01:22;11.70;99.90
51557;DHT22;38766;53.194;5.532;2022-11-11T06:03:48;11.80;99.90
51557;DHT22;38766;53.194;5.532;2022-11-11T06:06:14;11.70;99.90
51557;DHT22;38766;53.194;5.532;2022-11-11T06:08:40;11.70;99.90
51557;DHT22;38766;53.194;5.532;2022-11-11T06:11:06;11.70;99.90
51557;DHT22;38766;53.194;5.532;2022-11-11T06:13:32;11.70;99.90
51557;DHT22;38766;53.194;5.532;2022-11-11T06:15:58;11.70;99.90
51557;DHT22;38766;53.194;5.532;2022-11-11T06:18:23;11.70;99.90
51557;DHT22;38766;53.194;5.532;2022-11-11T06:20:56;11.70;99.90
51557;DHT22;38766;53.194;5.532;2022-11-11T06:23:25;11.70;99.90
51557;DHT22;38766;53.194;5.532;2022-11-11T06:25:51;11.70;99.90
51557;DHT22;38766;53.194;5.532;2022-11-11T06:28:36;11.70;99.90
51557;DHT22;38766;53.194;5.532;2022-11-11T06:31:02;11.70;99.90
51557;DHT22;38766;53.194;5.532;2022-11-11T06:33:29;11.70;99.90
51557;DHT22;38766;53.194;5.532;2022-11-11T06:35:55;11.70;99.90
51557;DHT22;38766;53.194;5.532;2022-11-11T06:38:20;11.70;99.90
51557;DHT22;38766;53.194;5.532;2022-11-11T06:40:47;11.80;99.90
51557;DHT22;38766;53.194;5.532;2022-11-11T06:43:12;11.70;99.90
51557;DHT22;38766;53.194;5.532;2022-11-11T06:45:38;11.80;99.90
51557;DHT22;38766;53.194;5.532;2022-11-11T06:48:04;11.70;99.90
51557;DHT22;38766;53.194;5.532;2022-11-11T06:50:34;11.70;99.90
51557;DHT22;38766;53.194;5.532;2022-11-11T06:53:09;11.80;99.90
51557;DHT22;38766;53.194;5.532;2022-11-11T06:55:35;11.70;99.90
51557;DHT22;38766;53.194;5.532;2022-11-11T06:58:11;11.70;99.90
51557;DHT22;38766;53.194;5.532;2022-11-11T07:00:38;11.70;99.90
51557;DHT22;38766;53.194;5.532;2022-11-11T07:03:05;11.70;99.90
51557;DHT22;38766;53.194;5.532;2022-11-11T07:05:32;11.60;99.90
51557;DHT22;38766;53.194;5.532;2022-11-11T07:08:06;11.70;99.90
51557;DHT22;38766;53.194;5.532;2022-11-11T07:10:34;11.70;99.90
51557;DHT22;38766;53.194;5.532;2022-11-11T07:13:00;11.70;99.90
51557;DHT22;38766;53.194;5.532;2022-11-11T07:15:27;11.70;99.90
51557;DHT22;38766;53.194;5.532;2022-11-11T07:18:23;11.70;99.90
51557;DHT22;38766;53.194;5.532;2022-11-11T07:20:49;11.70;99.90
51557;DHT22;38766;53.194;5.532;2022-11-11T07:23:14;11.70;99.90
51557;DHT22;38766;53.194;5.532;2022-11-11T07:25:42;11.70;99.90
51557;DHT22;38766;53.194;5.532;2022-11-11T07:28:08;11.70;99.90
51557;DHT22;38766;53.194;5.532;2022-11-11T07:30:34;11.70;99.90
51557;DHT22;38766;53.194;5.532;2022-11-11T07:32:59;11.60;99.90
51557;DHT22;38766;53.194;5.532;2022-11-11T07:35:25;11.70;99.90
51557;DHT22;38766;53.194;5.532;2022-11-11T07:37:50;11.70;99.90
51557;DHT22;38766;53.194;5.532;2022-11-11T07:40:17;11.70;99.90
51557;DHT22;38766;53.194;5.532;2022-11-11T07:42:43;11.70;99.90
51557;DHT22;38766;53.194;5.532;2022-11-11T07:45:10;11.60;99.90
51557;DHT22;38766;53.194;5.532;2022-11-11T07:47:36;11.60;99.90
51557;DHT22;38766;53.194;5.532;2022-11-11T07:50:04;11.70;99.90
51557;DHT22;38766;53.194;5.532;2022-11-11T07:52:30;11.60;99.90
51557;DHT22;38766;53.194;5.532;2022-11-11T07:54:56;11.70;99.90
51557;DHT22;38766;53.194;5.532;2022-11-11T07:57:22;11.60;99.90
51557;DHT22;38766;53.194;5.532;2022-11-11T07:59:48;11.60;99.90
51557;DHT22;38766;53.194;5.532;2022-11-11T08:02:14;11.70;99.90
51557;DHT22;38766;53.194;5.532;2022-11-11T08:04:40;11.60;99.90
51557;DHT22;38766;53.194;5.532;2022-11-11T08:07:05;11.60;99.90
51557;DHT22;38766;53.194;5.532;2022-11-11T08:09:31;11.60;99.90
51557;DHT22;38766;53.194;5.532;2022-11-11T08:11:57;11.60;99.90
51557;DHT22;38766;53.194;5.532;2022-11-11T08:14:41;11.60;99.90
51557;DHT22;38766;53.194;5.532;2022-11-11T08:17:07;11.60;99.90
51557;DHT22;38766;53.194;5.532;2022-11-11T08:19:32;11.60;99.90
51557;DHT22;38766;53.194;5.532;2022-11-11T08:21:58;11.70;99.90
51557;DHT22;38766;53.194;5.532;2022-11-11T08:24:23;11.70;99.90
51557;DHT22;38766;53.194;5.532;2022-11-11T08:26:49;11.60;99.90
51557;DHT22;38766;53.194;5.532;2022-11-11T08:29:15;11.60;99.90
51557;DHT22;38766;53.194;5.532;2022-11-11T08:31:40;11.60;99.90
51557;DHT22;38766;53.194;5.532;2022-11-11T08:34:06;11.60;99.90
51557;DHT22;38766;53.194;5.532;2022-11-11T08:36:32;11.60;99.90
51557;DHT22;38766;53.194;5.532;2022-11-11T08:38:58;11.60;99.90
51557;DHT22;38766;53.194;5.532;2022-11-11T08:41:23;11.60;99.90
51557;DHT22;38766;53.194;5.532;2022-11-11T08:43:53;11.60;99.90
51557;DHT22;38766;53.194;5.532;2022-11-11T08:46:20;11.50;99.90
51557;DHT22;38766;53.194;5.532;2022-11-11T08:48:45;11.60;99.90
51557;DHT22;38766;53.194;5.532;2022-11-11T08:51:12;11.60;99.90
51557;DHT22;38766;53.194;5.532;2022-11-11T08:53:38;11.60;99.90
51557;DHT22;38766;53.194;5.532;2022-11-11T08:56:04;11.60;99.90
51557;DHT22;38766;53.194;5.532;2022-11-11T08:58:30;11.60;99.90
51557;DHT22;38766;53.194;5.532;2022-11-11T09:00:56;11.60;99.90
51557;DHT22;38766;53.194;5.532;2022-11-11T09:03:21;11.60;99.90
51557;DHT22;38766;53.194;5.532;2022-11-11T09:05:47;11.60;99.90
51557;DHT22;38766;53.194;5.532;2022-11-11T09:08:13;11.60;99.90
51557;DHT22;38766;53.194;5.532;2022-11-11T09:10:39;11.60;99.90
51557;DHT22;38766;53.194;5.532;2022-11-11T09:13:05;11.60;99.90
51557;DHT22;38766;53.194;5.532;2022-11-11T09:15:33;11.60;99.90
51557;DHT22;38766;53.194;5.532;2022-11-11T09:17:59;11.60;99.90
51557;DHT22;38766;53.194;5.532;2022-11-11T09:20:26;11.70;99.90
51557;DHT22;38766;53.194;5.532;2022-11-11T09:22:51;11.60;99.90
51557;DHT22;38766;53.194;5.532;2022-11-11T09:25:17;11.70;99.90
51557;DHT22;38766;53.194;5.532;2022-11-11T09:27:43;11.60;99.90
51557;DHT22;38766;53.194;5.532;2022-11-11T09:30:09;11.70;99.90
51557;DHT22;38766;53.194;5.532;2022-11-11T09:32:36;11.60;99.90
51557;DHT22;38766;53.194;5.532;2022-11-11T09:35:02;11.70;99.90
51557;DHT22;38766;53.194;5.532;2022-11-11T09:37:28;11.60;99.90
51557;DHT22;38766;53.194;5.532;2022-11-11T09:39:54;11.70;99.90
51557;DHT22;38766;53.194;5.532;2022-11-11T09:42:36;11.60;99.90
51557;DHT22;38766;53.194;5.532;2022-11-11T09:50:49;11.60;99.90
51557;DHT22;38766;53.194;5.532;2022-11-11T09:53:32;11.70;99.90
51557;DHT22;38766;53.194;5.532;2022-11-11T09:56:07;11.60;99.90
51557;DHT22;38766;53.194;5.532;2022-11-11T09:58:38;11.70;99.90
51557;DHT22;38766;53.194;5.532;2022-11-11T10:01:11;11.60;99.90
51557;DHT22;38766;53.194;5.532;2022-11-11T10:03:45;11.70;99.90
51557;DHT22;38766;53.194;5.532;2022-11-11T10:06:22;11.80;99.90
51557;DHT22;38766;53.194;5.532;2022-11-11T10:09:06;11.70;99.90
51557;DHT22;38766;53.194;5.532;2022-11-11T10:11:42;11.80;99.90
51557;DHT22;38766;53.194;5.532;2022-11-11T10:14:12;11.80;99.90
51557;DHT22;38766;53.194;5.532;2022-11-11T10:19:33;11.80;99.90
51557;DHT22;38766;53.194;5.532;2022-11-11T10:22:05;11.80;99.90
51557;DHT22;38766;53.194;5.532;2022-11-11T10:24:40;11.70;99.90
51557;DHT22;38766;53.194;5.532;2022-11-11T10:27:17;11.80;99.90
51557;DHT22;38766;53.194;5.532;2022-11-11T10:29:43;11.80;99.90
51557;DHT22;38766;53.194;5.532;2022-11-11T10:32:39;11.80;99.90
51557;DHT22;38766;53.194;5.532;2022-11-11T10:35:15;11.70;99.90
51557;DHT22;38766;53.194;5.532;2022-11-11T10:37:42;11.70;99.90
51557;DHT22;38766;53.194;5.532;2022-11-11T10:40:20;11.70;99.90
51557;DHT22;38766;53.194;5.532;2022-11-11T10:42:46;11.70;99.90
51557;DHT22;38766;53.194;5.532;2022-11-11T10:45:21;11.70;99.90
51557;DHT22;38766;53.194;5.532;2022-11-11T10:48:28;11.70;99.90
51557;DHT22;38766;53.194;5.532;2022-11-11T10:50:49;11.70;99.90
51557;DHT22;38766;53.194;5.532;2022-11-11T10:56:24;11.70;99.90
51557;DHT22;38766;53.194;5.532;2022-11-11T10:58:57;11.70;99.90
51557;DHT22;38766;53.194;5.532;2022-11-11T11:01:31;11.70;99.90
51557;DHT22;38766;53.194;5.532;2022-11-11T11:04:04;11.70;99.90
51557;DHT22;38766;53.194;5.532;2022-11-11T11:06:36;11.70;99.90
51557;DHT22;38766;53.194;5.532;2022-11-11T11:09:20;11.70;99.90
51557;DHT22;38766;53.194;5.532;2022-11-11T11:11:51;11.70;99.90
51557;DHT22;38766;53.194;5.532;2022-11-11T11:14:38;11.80;99.90
51557;DHT22;38766;53.194;5.532;2022-11-11T11:17:14;11.60;99.90
51557;DHT22;38766;53.194;5.532;2022-11-11T11:19:41;11.70;99.90
51557;DHT22;38766;53.194;5.532;2022-11-11T11:22:06;11.80;99.90
51557;DHT22;38766;53.194;5.532;2022-11-11T11:24:34;11.70;99.90
51557;DHT22;38766;53.194;5.532;2022-11-11T11:27:06;11.70;99.90
51557;DHT22;38766;53.194;5.532;2022-11-11T11:29:37;11.70;99.90
51557;DHT22;38766;53.194;5.532;2022-11-11T11:32:13;11.70;99.90
51557;DHT22;38766;53.194;5.532;2022-11-11T11:34:44;11.80;99.90
51557;DHT22;38766;53.194;5.532;2022-11-11T11:37:10;11.80;99.90
51557;DHT22;38766;53.194;5.532;2022-11-11T11:39:38;11.80;99.90
51557;DHT22;38766;53.194;5.532;2022-11-11T11:42:04;11.80;99.90
51557;DHT22;38766;53.194;5.532;2022-11-11T11:44:32;11.80;99.90
51557;DHT22;38766;53.194;5.532;2022-11-11T11:47:27;11.80;99.90
51557;DHT22;38766;53.194;5.532;2022-11-11T11:50:23;11.80;99.90
51557;DHT22;38766;53.194;5.532;2022-11-11T11:53:01;11.80;99.90
51557;DHT22;38766;53.194;5.532;2022-11-11T11:55:36;11.80;99.90
51557;DHT22;38766;53.194;5.532;2022-11-11T12:04:27;11.90;99.90
51557;DHT22;38766;53.194;5.532;2022-11-11T12:18:11;11.90;99.90
51557;DHT22;38766;53.194;5.532;2022-11-11T12:21:11;11.90;99.90
51557;DHT22;38766;53.194;5.532;2022-11-11T12:23:55;12.00;99.90
51557;DHT22;38766;53.194;5.532;2022-11-11T12:34:48;12.00;99.90
51557;DHT22;38766;53.194;5.532;2022-11-11T12:40:39;12.00;99.90
51557;DHT22;38766;53.194;5.532;2022-11-11T12:49:00;12.10;99.90
51557;DHT22;38766;53.194;5.532;2022-11-11T12:51:39;12.10;99.90
51557;DHT22;38766;53.194;5.532;2022-11-11T12:54:41;12.20;99.90
51557;DHT22;38766;53.194;5.532;2022-11-11T13:12:39;12.30;99.90
51557;DHT22;38766;53.194;5.532;2022-11-11T13:15:21;12.40;99.90
51557;DHT22;38766;53.194;5.532;2022-11-11T13:17:48;12.40;99.90
51557;DHT22;38766;53.194;5.532;2022-11-11T13:20:48;12.40;99.90
51557;DHT22;38766;53.194;5.532;2022-11-11T13:23:15;12.40;99.90
51557;DHT22;38766;53.194;5.532;2022-11-11T13:25:46;12.40;99.90
51557;DHT22;38766;53.194;5.532;2022-11-11T13:28:24;12.40;99.90
51557;DHT22;38766;53.194;5.532;2022-11-11T13:33:51;12.40;99.90
51557;DHT22;38766;53.194;5.532;2022-11-11T13:36:24;12.40;99.90
51557;DHT22;38766;53.194;5.532;2022-11-11T13:38:58;12.40;99.90
51557;DHT22;38766;53.194;5.532;2022-11-11T13:41:28;12.40;99.90
51557;DHT22;38766;53.194;5.532;2022-11-11T13:43:57;12.30;99.90
51557;DHT22;38766;53.194;5.532;2022-11-11T13:46:32;12.30;99.90
51557;DHT22;38766;53.194;5.532;2022-11-11T13:48:59;12.30;99.90
51557;DHT22;38766;53.194;5.532;2022-11-11T13:51:42;12.30;99.90
51557;DHT22;38766;53.194;5.532;2022-11-11T13:56:48;12.30;99.90
51557;DHT22;38766;53.194;5.532;2022-11-11T13:59:24;12.30;99.90
51557;DHT22;38766;53.194;5.532;2022-11-11T14:12:51;12.30;99.90
51557;DHT22;38766;53.194;5.532;2022-11-11T14:17:58;12.30;99.90
51557;DHT22;38766;53.194;5.532;2022-11-11T14:20:35;12.30;99.90
51557;DHT22;38766;53.194;5.532;2022-11-11T14:28:32;12.30;99.90
51557;DHT22;38766;53.194;5.532;2022-11-11T14:34:04;12.30;99.90
51557;DHT22;38766;53.194;5.532;2022-11-11T14:39:19;12.30;99.90
51557;DHT22;38766;53.194;5.532;2022-11-11T14:41:50;12.30;99.90
51557;DHT22;38766;53.194;5.532;2022-11-11T14:49:55;12.20;99.90
51557;DHT22;38766;53.194;5.532;2022-11-11T14:57:39;12.20;99.90
51557;DHT22;38766;53.194;5.532;2022-11-11T15:00:20;12.20;99.90
51557;DHT22;38766;53.194;5.532;2022-11-11T15:02:52;12.20;99.90
51557;DHT22;38766;53.194;5.532;2022-11-11T15:09:00;12.20;99.90
51557;DHT22;38766;53.194;5.532;2022-11-11T15:17:21;12.20;99.90
51557;DHT22;38766;53.194;5.532;2022-11-11T15:20:09;12.20;99.90
51557;DHT22;38766;53.194;5.532;2022-11-11T15:23:07;12.20;99.90
51557;DHT22;38766;53.194;5.532;2022-11-11T15:31:23;12.20;99.90
51557;DHT22;38766;53.194;5.532;2022-11-11T15:34:05;12.20;99.90
51557;DHT22;38766;53.194;5.532;2022-11-11T15:36:53;12.20;99.90
51557;DHT22;38766;53.194;5.532;2022-11-11T15:39:23;12.10;99.90
51557;DHT22;38766;53.194;5.532;2022-11-11T15:41:51;12.10;99.90
51557;DHT22;38766;53.194;5.532;2022-11-11T15:44:28;12.10;99.90
51557;DHT22;38766;53.194;5.532;2022-11-11T15:46:56;12.10;99.90
51557;DHT22;38766;53.194;5.532;2022-11-11T15:49:45;12.10;99.90
51557;DHT22;38766;53.194;5.532;2022-11-11T15:54:53;12.10;99.90
51557;DHT22;38766;53.194;5.532;2022-11-11T15:59:49;12.10;99.90
51557;DHT22;38766;53.194;5.532;2022-11-11T16:02:21;12.00;99.90
51557;DHT22;38766;53.194;5.532;2022-11-11T16:05:14;12.00;99.90
51557;DHT22;38766;53.194;5.532;2022-11-11T16:07:42;12.00;99.90
51557;DHT22;38766;53.194;5.532;2022-11-11T16:10:15;12.00;99.90
51557;DHT22;38766;53.194;5.532;2022-11-11T16:12:49;12.00;99.90
51557;DHT22;38766;53.194;5.532;2022-11-11T16:18:04;12.00;99.90
51557;DHT22;38766;53.194;5.532;2022-11-11T16:20:41;12.00;99.90
51557;DHT22;38766;53.194;5.532;2022-11-11T16:23:08;12.00;99.90
51557;DHT22;38766;53.194;5.532;2022-11-11T16:25:39;12.00;99.90
51557;DHT22;38766;53.194;5.532;2022-11-11T16:28:05;12.00;99.90
51557;DHT22;38766;53.194;5.532;2022-11-11T16:30:34;12.00;99.90
51557;DHT22;38766;53.194;5.532;2022-11-11T16:33:01;12.00;99.90
51557;DHT22;38766;53.194;5.532;2022-11-11T16:35:31;12.00;99.90
51557;DHT22;38766;53.194;5.532;2022-11-11T16:37:59;12.00;99.90
51557;DHT22;38766;53.194;5.532;2022-11-11T16:43:29;11.90;99.90
51557;DHT22;38766;53.194;5.532;2022-11-11T16:46:07;11.90;99.90
51557;DHT22;38766;53.194;5.532;2022-11-11T16:51:16;11.80;99.90
51557;DHT22;38766;53.194;5.532;2022-11-11T16:53:47;11.80;99.90
51557;DHT22;38766;53.194;5.532;2022-11-11T16:56:22;11.80;99.90
51557;DHT22;38766;53.194;5.532;2022-11-11T16:59:06;11.70;99.90
51557;DHT22;38766;53.194;5.532;2022-11-11T17:01:43;11.60;99.90
51557;DHT22;38766;53.194;5.532;2022-11-11T17:04:10;11.60;99.90
51557;DHT22;38766;53.194;5.532;2022-11-11T17:07:05;11.50;99.90
51557;DHT22;38766;53.194;5.532;2022-11-11T17:09:39;11.50;99.90
51557;DHT22;38766;53.194;5.532;2022-11-11T17:12:06;11.40;99.90
51557;DHT22;38766;53.194;5.532;2022-11-11T17:14:35;11.40;99.90
51557;DHT22;38766;53.194;5.532;2022-11-11T17:17:02;11.40;99.90
51557;DHT22;38766;53.194;5.532;2022-11-11T17:19:30;11.30;99.90
51557;DHT22;38766;53.194;5.532;2022-11-11T17:22:09;11.30;99.90
51557;DHT22;38766;53.194;5.532;2022-11-11T17:24:35;11.20;99.90
51557;DHT22;38766;53.194;5.532;2022-11-11T17:27:02;11.20;99.90
51557;DHT22;38766;53.194;5.532;2022-11-11T17:29:27;11.20;99.90
51557;DHT22;38766;53.194;5.532;2022-11-11T17:31:53;11.30;99.90
51557;DHT22;38766;53.194;5.532;2022-11-11T17:34:18;11.20;99.90
51557;DHT22;38766;53.194;5.532;2022-11-11T17:36:44;11.20;99.90
51557;DHT22;38766;53.194;5.532;2022-11-11T17:39:09;11.20;99.90
51557;DHT22;38766;53.194;5.532;2022-11-11T17:41:35;11.20;99.90
51557;DHT22;38766;53.194;5.532;2022-11-11T17:44:01;11.10;99.90
51557;DHT22;38766;53.194;5.532;2022-11-11T17:46:26;11.20;99.90
51557;DHT22;38766;53.194;5.532;2022-11-11T17:48:53;11.30;99.90
51557;DHT22;38766;53.194;5.532;2022-11-11T17:51:23;11.30;99.90
51557;DHT22;38766;53.194;5.532;2022-11-11T17:53:50;11.40;99.90
51557;DHT22;38766;53.194;5.532;2022-11-11T17:56:16;11.40;99.90
51557;DHT22;38766;53.194;5.532;2022-11-11T17:58:41;11.40;99.90
51557;DHT22;38766;53.194;5.532;2022-11-11T18:01:08;11.50;99.90
51557;DHT22;38766;53.194;5.532;2022-11-11T18:03:35;11.40;99.90
51557;DHT22;38766;53.194;5.532;2022-11-11T18:06:00;11.50;99.90
51557;DHT22;38766;53.194;5.532;2022-11-11T18:08:28;11.50;99.90
51557;DHT22;38766;53.194;5.532;2022-11-11T18:11:06;11.50;99.90